sensor_id;sensor_type;location;lat;lon;timestamp;P1;durP1;ratioP1;P2;durP2;ratioP2
10586;SDS011;5341;47.606;7.576;2022-12-11T00:02:35;26.20;;;18.50;;
10586;SDS011;5341;47.606;7.576;2022-12-11T00:05:03;27.92;;;19.33;;
10586;SDS011;5341;47.606;7.576;2022-12-11T00:07:33;23.67;;;18.15;;
10586;SDS011;5341;47.606;7.576;2022-12-11T00:10:09;27.67;;;19.10;;
10586;SDS011;5341;47.606;7.576;2022-12-11T00:12:46;27.90;;;19.58;;
10586;SDS011;5341;47.606;7.576;2022-12-11T00:15:16;24.92;;;19.13;;
10586;SDS011;5341;47.606;7.576;2022-12-11T00:17:43;28.48;;;19.52;;
10586;SDS011;5341;47.606;7.576;2022-12-11T00:20:11;26.67;;;19.17;;
10586;SDS011;5341;47.606;7.576;2022-12-11T00:22:44;26.35;;;18.45;;
10586;SDS011;5341;47.606;7.576;2022-12-11T00:25:11;26.23;;;18.95;;
10586;SDS011;5341;47.606;7.576;2022-12-11T00:27:39;26.17;;;18.90;;
10586;SDS011;5341;47.606;7.576;2022-12-11T00:30:10;24.38;;;17.95;;
10586;SDS011;5341;47.606;7.576;2022-12-11T00:32:49;26.00;;;18.73;;
10586;SDS011;5341;47.606;7.576;2022-12-11T00:36:08;28.33;;;19.42;;
10586;SDS011;5341;47.606;7.576;2022-12-11T00:38:42;25.25;;;18.85;;
10586;SDS011;5341;47.606;7.576;2022-12-11T00:41:11;24.70;;;18.10;;
10586;SDS011;5341;47.606;7.576;2022-12-11T00:43:49;24.67;;;18.60;;
10586;SDS011;5341;47.606;7.576;2022-12-11T00:46:19;28.13;;;19.48;;
10586;SDS011;5341;47.606;7.576;2022-12-11T00:48:50;26.92;;;19.00;;
10586;SDS011;5341;47.606;7.576;2022-12-11T00:51:20;27.50;;;18.00;;
10586;SDS011;5341;47.606;7.576;2022-12-11T00:53:53;26.27;;;18.83;;
10586;SDS011;5341;47.606;7.576;2022-12-11T00:56:23;24.70;;;17.63;;
10586;SDS011;5341;47.606;7.576;2022-12-11T00:58:53;25.13;;;18.33;;
10586;SDS011;5341;47.606;7.576;2022-12-11T01:01:22;24.83;;;18.15;;
10586;SDS011;5341;47.606;7.576;2022-12-11T01:03:53;24.48;;;18.35;;
10586;SDS011;5341;47.606;7.576;2022-12-11T01:06:22;23.67;;;17.08;;
10586;SDS011;5341;47.606;7.576;2022-12-11T01:08:53;23.67;;;17.08;;
10586;SDS011;5341;47.606;7.576;2022-12-11T01:11:35;26.73;;;17.77;;
10586;SDS011;5341;47.606;7.576;2022-12-11T01:14:03;25.73;;;18.92;;
10586;SDS011;5341;47.606;7.576;2022-12-11T01:16:33;25.50;;;18.20;;
10586;SDS011;5341;47.606;7.576;2022-12-11T01:19:05;25.90;;;18.20;;
10586;SDS011;5341;47.606;7.576;2022-12-11T01:21:45;25.10;;;18.15;;
10586;SDS011;5341;47.606;7.576;2022-12-11T01:24:14;24.85;;;17.65;;
10586;SDS011;5341;47.606;7.576;2022-12-11T01:26:43;25.23;;;17.65;;
10586;SDS011;5341;47.606;7.576;2022-12-11T01:29:12;23.00;;;16.85;;
10586;SDS011;5341;47.606;7.576;2022-12-11T01:31:40;26.10;;;18.08;;
10586;SDS011;5341;47.606;7.576;2022-12-11T01:34:10;25.58;;;18.30;;
10586;SDS011;5341;47.606;7.576;2022-12-11T01:36:38;26.10;;;18.77;;
10586;SDS011;5341;47.606;7.576;2022-12-11T01:39:08;24.55;;;17.23;;
10586;SDS011;5341;47.606;7.576;2022-12-11T01:41:36;24.70;;;17.65;;
10586;SDS011;5341;47.606;7.576;2022-12-11T01:44:04;24.52;;;17.63;;
10586;SDS011;5341;47.606;7.576;2022-12-11T01:46:34;24.10;;;17.30;;
10586;SDS011;5341;47.606;7.576;2022-12-11T01:49:04;25.05;;;17.90;;
10586;SDS011;5341;47.606;7.576;2022-12-11T01:51:37;24.90;;;17.67;;
10586;SDS011;5341;47.606;7.576;2022-12-11T01:54:09;24.42;;;17.27;;
10586;SDS011;5341;47.606;7.576;2022-12-11T01:56:40;24.95;;;17.95;;
10586;SDS011;5341;47.606;7.576;2022-12-11T01:59:10;25.50;;;17.70;;
10586;SDS011;5341;47.606;7.576;2022-12-11T02:01:42;24.38;;;17.00;;
10586;SDS011;5341;47.606;7.576;2022-12-11T02:04:15;24.52;;;17.00;;
10586;SDS011;5341;47.606;7.576;2022-12-11T02:06:47;23.88;;;16.58;;
10586;SDS011;5341;47.606;7.576;2022-12-11T02:09:18;23.73;;;17.02;;
10586;SDS011;5341;47.606;7.576;2022-12-11T02:11:51;26.85;;;18.33;;
10586;SDS011;5341;47.606;7.576;2022-12-11T02:14:34;24.73;;;17.20;;
10586;SDS011;5341;47.606;7.576;2022-12-11T02:17:10;23.02;;;16.38;;
10586;SDS011;5341;47.606;7.576;2022-12-11T02:19:48;22.80;;;16.83;;
10586;SDS011;5341;47.606;7.576;2022-12-11T02:22:27;21.75;;;16.35;;
10586;SDS011;5341;47.606;7.576;2022-12-11T02:25:12;24.52;;;16.02;;
10586;SDS011;5341;47.606;7.576;2022-12-11T02:27:48;24.88;;;16.80;;
10586;SDS011;5341;47.606;7.576;2022-12-11T02:30:23;22.08;;;15.32;;
10586;SDS011;5341;47.606;7.576;2022-12-11T02:32:53;21.10;;;15.32;;
10586;SDS011;5341;47.606;7.576;2022-12-11T02:35:23;22.92;;;16.08;;
10586;SDS011;5341;47.606;7.576;2022-12-11T02:37:58;25.02;;;16.40;;
10586;SDS011;5341;47.606;7.576;2022-12-11T02:40:31;22.05;;;14.95;;
10586;SDS011;5341;47.606;7.576;2022-12-11T02:43:06;22.60;;;16.08;;
10586;SDS011;5341;47.606;7.576;2022-12-11T02:45:41;21.35;;;15.60;;
10586;SDS011;5341;47.606;7.576;2022-12-11T02:48:12;21.00;;;15.00;;
10586;SDS011;5341;47.606;7.576;2022-12-11T02:50:48;23.98;;;16.08;;
10586;SDS011;5341;47.606;7.576;2022-12-11T02:53:30;19.95;;;14.73;;
10586;SDS011;5341;47.606;7.576;2022-12-11T02:56:18;20.25;;;14.70;;
10586;SDS011;5341;47.606;7.576;2022-12-11T02:58:56;21.95;;;15.93;;
10586;SDS011;5341;47.606;7.576;2022-12-11T03:01:42;19.35;;;14.45;;
10586;SDS011;5341;47.606;7.576;2022-12-11T03:04:12;20.92;;;15.68;;
10586;SDS011;5341;47.606;7.576;2022-12-11T03:07:02;20.42;;;14.55;;
10586;SDS011;5341;47.606;7.576;2022-12-11T03:09:37;19.92;;;14.77;;
10586;SDS011;5341;47.606;7.576;2022-12-11T03:12:06;22.98;;;15.68;;
10586;SDS011;5341;47.606;7.576;2022-12-11T03:14:36;20.83;;;15.00;;
10586;SDS011;5341;47.606;7.576;2022-12-11T03:17:11;19.20;;;14.05;;
10586;SDS011;5341;47.606;7.576;2022-12-11T03:19:44;21.67;;;15.18;;
10586;SDS011;5341;47.606;7.576;2022-12-11T03:22:19;19.02;;;14.52;;
10586;SDS011;5341;47.606;7.576;2022-12-11T03:24:54;19.50;;;13.65;;
10586;SDS011;5341;47.606;7.576;2022-12-11T03:27:27;19.00;;;14.10;;
10586;SDS011;5341;47.606;7.576;2022-12-11T03:30:02;20.08;;;14.07;;
10586;SDS011;5341;47.606;7.576;2022-12-11T03:32:35;19.08;;;14.88;;
10586;SDS011;5341;47.606;7.576;2022-12-11T03:35:07;19.25;;;13.88;;
10586;SDS011;5341;47.606;7.576;2022-12-11T03:37:55;19.52;;;14.55;;
10586;SDS011;5341;47.606;7.576;2022-12-11T03:40:50;19.08;;;13.55;;
10586;SDS011;5341;47.606;7.576;2022-12-11T03:43:22;20.90;;;14.88;;
10586;SDS011;5341;47.606;7.576;2022-12-11T03:45:52;18.90;;;13.68;;
10586;SDS011;5341;47.606;7.576;2022-12-11T03:48:22;19.27;;;14.82;;
10586;SDS011;5341;47.606;7.576;2022-12-11T03:51:00;20.05;;;14.10;;
10586;SDS011;5341;47.606;7.576;2022-12-11T03:53:31;20.73;;;14.82;;
10586;SDS011;5341;47.606;7.576;2022-12-11T03:56:01;20.23;;;15.13;;
10586;SDS011;5341;47.606;7.576;2022-12-11T03:58:30;20.75;;;15.43;;
10586;SDS011;5341;47.606;7.576;2022-12-11T04:00:58;24.67;;;17.10;;
10586;SDS011;5341;47.606;7.576;2022-12-11T04:03:27;22.73;;;16.38;;
10586;SDS011;5341;47.606;7.576;2022-12-11T04:05:55;24.83;;;17.35;;
10586;SDS011;5341;47.606;7.576;2022-12-11T04:08:22;26.85;;;17.45;;
10586;SDS011;5341;47.606;7.576;2022-12-11T04:10:50;26.90;;;18.15;;
10586;SDS011;5341;47.606;7.576;2022-12-11T04:13:39;26.90;;;17.15;;
10586;SDS011;5341;47.606;7.576;2022-12-11T04:16:08;26.58;;;17.52;;
10586;SDS011;5341;47.606;7.576;2022-12-11T04:18:36;23.08;;;16.90;;
10586;SDS011;5341;47.606;7.576;2022-12-11T04:21:21;26.08;;;17.95;;
10586;SDS011;5341;47.606;7.576;2022-12-11T04:24:06;28.65;;;18.25;;
10586;SDS011;5341;47.606;7.576;2022-12-11T04:26:41;28.20;;;18.60;;
10586;SDS011;5341;47.606;7.576;2022-12-11T04:29:09;28.40;;;17.92;;
10586;SDS011;5341;47.606;7.576;2022-12-11T04:31:37;24.88;;;17.73;;
10586;SDS011;5341;47.606;7.576;2022-12-11T04:34:06;28.67;;;18.63;;
10586;SDS011;5341;47.606;7.576;2022-12-11T04:36:33;27.50;;;18.65;;
10586;SDS011;5341;47.606;7.576;2022-12-11T04:39:01;28.27;;;18.00;;
10586;SDS011;5341;47.606;7.576;2022-12-11T04:41:30;24.17;;;17.10;;
10586;SDS011;5341;47.606;7.576;2022-12-11T04:43:58;23.48;;;16.70;;
10586;SDS011;5341;47.606;7.576;2022-12-11T04:46:25;26.13;;;17.95;;
10586;SDS011;5341;47.606;7.576;2022-12-11T04:48:54;23.50;;;16.98;;
10586;SDS011;5341;47.606;7.576;2022-12-11T04:51:41;24.23;;;16.58;;
10586;SDS011;5341;47.606;7.576;2022-12-11T04:54:09;23.23;;;17.20;;
10586;SDS011;5341;47.606;7.576;2022-12-11T04:56:36;25.85;;;17.48;;
10586;SDS011;5341;47.606;7.576;2022-12-11T04:59:04;24.15;;;16.70;;
10586;SDS011;5341;47.606;7.576;2022-12-11T05:01:32;25.88;;;17.23;;
10586;SDS011;5341;47.606;7.576;2022-12-11T05:03:59;23.73;;;16.33;;
10586;SDS011;5341;47.606;7.576;2022-12-11T05:06:27;25.30;;;17.10;;
10586;SDS011;5341;47.606;7.576;2022-12-11T05:08:56;25.00;;;16.33;;
10586;SDS011;5341;47.606;7.576;2022-12-11T05:11:24;24.02;;;17.05;;
10586;SDS011;5341;47.606;7.576;2022-12-11T05:13:52;24.65;;;17.30;;
10586;SDS011;5341;47.606;7.576;2022-12-11T05:16:20;28.42;;;18.52;;
10586;SDS011;5341;47.606;7.576;2022-12-11T05:18:47;24.30;;;17.05;;
10586;SDS011;5341;47.606;7.576;2022-12-11T05:21:15;25.42;;;17.60;;
10586;SDS011;5341;47.606;7.576;2022-12-11T05:23:43;23.38;;;17.33;;
10586;SDS011;5341;47.606;7.576;2022-12-11T05:26:13;26.77;;;16.73;;
10586;SDS011;5341;47.606;7.576;2022-12-11T05:28:41;24.23;;;16.23;;
10586;SDS011;5341;47.606;7.576;2022-12-11T05:31:12;23.08;;;16.13;;
10586;SDS011;5341;47.606;7.576;2022-12-11T05:33:43;23.15;;;15.80;;
10586;SDS011;5341;47.606;7.576;2022-12-11T05:36:12;22.95;;;15.65;;
10586;SDS011;5341;47.606;7.576;2022-12-11T05:38:43;22.13;;;15.55;;
10586;SDS011;5341;47.606;7.576;2022-12-11T05:41:13;22.00;;;15.75;;
10586;SDS011;5341;47.606;7.576;2022-12-11T05:43:43;22.77;;;15.43;;
10586;SDS011;5341;47.606;7.576;2022-12-11T05:46:12;22.77;;;15.70;;
10586;SDS011;5341;47.606;7.576;2022-12-11T05:48:45;22.38;;;15.55;;
10586;SDS011;5341;47.606;7.576;2022-12-11T05:54:33;21.88;;;15.50;;
10586;SDS011;5341;47.606;7.576;2022-12-11T05:57:02;21.88;;;15.07;;
10586;SDS011;5341;47.606;7.576;2022-12-11T06:02:49;19.80;;;13.98;;
10586;SDS011;5341;47.606;7.576;2022-12-11T06:05:49;19.77;;;13.77;;
10586;SDS011;5341;47.606;7.576;2022-12-11T06:08:36;18.05;;;13.13;;
10586;SDS011;5341;47.606;7.576;2022-12-11T06:11:04;18.88;;;13.57;;
10586;SDS011;5341;47.606;7.576;2022-12-11T06:13:34;18.23;;;13.65;;
10586;SDS011;5341;47.606;7.576;2022-12-11T06:16:03;18.48;;;13.82;;
10586;SDS011;5341;47.606;7.576;2022-12-11T06:19:12;20.23;;;14.43;;
10586;SDS011;5341;47.606;7.576;2022-12-11T06:21:41;20.73;;;14.70;;
10586;SDS011;5341;47.606;7.576;2022-12-11T06:24:10;21.17;;;14.00;;
10586;SDS011;5341;47.606;7.576;2022-12-11T06:26:39;19.20;;;13.77;;
10586;SDS011;5341;47.606;7.576;2022-12-11T06:29:10;19.35;;;14.38;;
10586;SDS011;5341;47.606;7.576;2022-12-11T06:31:38;18.98;;;14.02;;
10586;SDS011;5341;47.606;7.576;2022-12-11T06:34:07;20.02;;;14.23;;
10586;SDS011;5341;47.606;7.576;2022-12-11T06:36:35;18.55;;;13.57;;
10586;SDS011;5341;47.606;7.576;2022-12-11T06:39:12;18.85;;;14.02;;
10586;SDS011;5341;47.606;7.576;2022-12-11T06:42:01;18.90;;;13.98;;
10586;SDS011;5341;47.606;7.576;2022-12-11T06:44:31;19.88;;;14.63;;
10586;SDS011;5341;47.606;7.576;2022-12-11T06:46:58;19.55;;;14.07;;
10586;SDS011;5341;47.606;7.576;2022-12-11T06:49:27;20.63;;;14.75;;
10586;SDS011;5341;47.606;7.576;2022-12-11T06:51:55;21.48;;;15.63;;
10586;SDS011;5341;47.606;7.576;2022-12-11T06:54:24;19.92;;;14.40;;
10586;SDS011;5341;47.606;7.576;2022-12-11T06:56:52;19.60;;;14.18;;
10586;SDS011;5341;47.606;7.576;2022-12-11T06:59:20;20.27;;;14.38;;
10586;SDS011;5341;47.606;7.576;2022-12-11T07:01:51;19.83;;;15.00;;
10586;SDS011;5341;47.606;7.576;2022-12-11T07:04:19;22.23;;;14.98;;
10586;SDS011;5341;47.606;7.576;2022-12-11T07:06:49;21.58;;;15.18;;
10586;SDS011;5341;47.606;7.576;2022-12-11T07:09:20;20.15;;;14.68;;
10586;SDS011;5341;47.606;7.576;2022-12-11T07:12:05;18.83;;;14.70;;
10586;SDS011;5341;47.606;7.576;2022-12-11T07:14:34;18.42;;;13.40;;
10586;SDS011;5341;47.606;7.576;2022-12-11T07:17:04;19.73;;;14.02;;
10586;SDS011;5341;47.606;7.576;2022-12-11T07:19:32;19.80;;;14.57;;
10586;SDS011;5341;47.606;7.576;2022-12-11T07:22:03;17.42;;;13.13;;
10586;SDS011;5341;47.606;7.576;2022-12-11T07:24:41;17.15;;;13.23;;
10586;SDS011;5341;47.606;7.576;2022-12-11T07:27:29;19.50;;;13.75;;
10586;SDS011;5341;47.606;7.576;2022-12-11T07:30:30;17.63;;;13.70;;
10586;SDS011;5341;47.606;7.576;2022-12-11T07:33:03;18.88;;;13.88;;
10586;SDS011;5341;47.606;7.576;2022-12-11T07:35:44;18.33;;;13.77;;
10586;SDS011;5341;47.606;7.576;2022-12-11T07:38:18;17.58;;;13.00;;
10586;SDS011;5341;47.606;7.576;2022-12-11T07:41:17;19.88;;;13.95;;
10586;SDS011;5341;47.606;7.576;2022-12-11T07:43:52;17.98;;;13.23;;
10586;SDS011;5341;47.606;7.576;2022-12-11T07:46:25;20.83;;;14.82;;
10586;SDS011;5341;47.606;7.576;2022-12-11T07:48:57;19.38;;;13.95;;
10586;SDS011;5341;47.606;7.576;2022-12-11T07:51:28;19.67;;;14.43;;
10586;SDS011;5341;47.606;7.576;2022-12-11T07:53:59;22.75;;;16.17;;
10586;SDS011;5341;47.606;7.576;2022-12-11T07:56:31;20.52;;;15.15;;
10586;SDS011;5341;47.606;7.576;2022-12-11T07:59:04;21.80;;;16.17;;
10586;SDS011;5341;47.606;7.576;2022-12-11T08:01:33;28.55;;;18.02;;
10586;SDS011;5341;47.606;7.576;2022-12-11T08:04:08;29.88;;;20.42;;
10586;SDS011;5341;47.606;7.576;2022-12-11T08:06:41;28.65;;;20.60;;
10586;SDS011;5341;47.606;7.576;2022-12-11T08:09:18;30.17;;;19.60;;
10586;SDS011;5341;47.606;7.576;2022-12-11T08:11:59;26.40;;;18.20;;
10586;SDS011;5341;47.606;7.576;2022-12-11T08:15:03;25.63;;;17.60;;
10586;SDS011;5341;47.606;7.576;2022-12-11T08:17:44;24.52;;;17.65;;
10586;SDS011;5341;47.606;7.576;2022-12-11T08:20:17;22.83;;;15.80;;
10586;SDS011;5341;47.606;7.576;2022-12-11T08:22:45;24.23;;;16.27;;
10586;SDS011;5341;47.606;7.576;2022-12-11T08:25:20;23.08;;;15.73;;
10586;SDS011;5341;47.606;7.576;2022-12-11T08:27:48;21.02;;;15.75;;
10586;SDS011;5341;47.606;7.576;2022-12-11T08:30:21;21.45;;;15.68;;
10586;SDS011;5341;47.606;7.576;2022-12-11T08:32:49;21.05;;;15.40;;
10586;SDS011;5341;47.606;7.576;2022-12-11T08:35:19;20.48;;;15.00;;
10586;SDS011;5341;47.606;7.576;2022-12-11T08:37:47;20.98;;;15.00;;
10586;SDS011;5341;47.606;7.576;2022-12-11T08:40:14;21.27;;;14.77;;
10586;SDS011;5341;47.606;7.576;2022-12-11T08:42:42;20.73;;;15.48;;
10586;SDS011;5341;47.606;7.576;2022-12-11T08:45:13;19.98;;;15.07;;
10586;SDS011;5341;47.606;7.576;2022-12-11T08:47:47;23.73;;;15.95;;
10586;SDS011;5341;47.606;7.576;2022-12-11T08:50:39;22.67;;;15.77;;
10586;SDS011;5341;47.606;7.576;2022-12-11T08:53:16;21.45;;;15.35;;
10586;SDS011;5341;47.606;7.576;2022-12-11T08:55:52;20.15;;;14.38;;
10586;SDS011;5341;47.606;7.576;2022-12-11T08:58:26;21.73;;;15.68;;
10586;SDS011;5341;47.606;7.576;2022-12-11T09:00:59;21.52;;;15.57;;
10586;SDS011;5341;47.606;7.576;2022-12-11T09:03:33;21.40;;;15.50;;
10586;SDS011;5341;47.606;7.576;2022-12-11T09:06:11;20.50;;;14.77;;
10586;SDS011;5341;47.606;7.576;2022-12-11T09:08:41;21.63;;;15.32;;
10586;SDS011;5341;47.606;7.576;2022-12-11T09:11:11;22.38;;;15.32;;
10586;SDS011;5341;47.606;7.576;2022-12-11T09:13:48;21.85;;;15.82;;
10586;SDS011;5341;47.606;7.576;2022-12-11T09:16:24;21.55;;;15.43;;
10586;SDS011;5341;47.606;7.576;2022-12-11T09:18:54;22.52;;;14.90;;
10586;SDS011;5341;47.606;7.576;2022-12-11T09:21:28;21.52;;;15.55;;
10586;SDS011;5341;47.606;7.576;2022-12-11T09:23:57;20.88;;;14.73;;
10586;SDS011;5341;47.606;7.576;2022-12-11T09:26:28;21.77;;;15.30;;
10586;SDS011;5341;47.606;7.576;2022-12-11T09:28:56;20.77;;;15.10;;
10586;SDS011;5341;47.606;7.576;2022-12-11T09:31:25;20.02;;;14.68;;
10586;SDS011;5341;47.606;7.576;2022-12-11T09:33:54;23.48;;;15.45;;
10586;SDS011;5341;47.606;7.576;2022-12-11T09:36:24;19.30;;;14.20;;
10586;SDS011;5341;47.606;7.576;2022-12-11T09:38:58;21.35;;;15.38;;
10586;SDS011;5341;47.606;7.576;2022-12-11T09:41:37;19.95;;;14.07;;
10586;SDS011;5341;47.606;7.576;2022-12-11T09:44:17;21.30;;;15.02;;
10586;SDS011;5341;47.606;7.576;2022-12-11T09:46:49;20.60;;;14.68;;
10586;SDS011;5341;47.606;7.576;2022-12-11T09:49:22;21.67;;;14.73;;
10586;SDS011;5341;47.606;7.576;2022-12-11T09:52:00;19.92;;;14.00;;
10586;SDS011;5341;47.606;7.576;2022-12-11T09:54:37;20.52;;;14.23;;
10586;SDS011;5341;47.606;7.576;2022-12-11T09:57:12;20.45;;;14.75;;
10586;SDS011;5341;47.606;7.576;2022-12-11T09:59:49;19.17;;;14.02;;
10586;SDS011;5341;47.606;7.576;2022-12-11T10:02:26;19.05;;;14.10;;
10586;SDS011;5341;47.606;7.576;2022-12-11T10:05:09;19.95;;;14.60;;
10586;SDS011;5341;47.606;7.576;2022-12-11T10:07:46;19.73;;;13.48;;
10586;SDS011;5341;47.606;7.576;2022-12-11T10:10:18;18.45;;;13.63;;
10586;SDS011;5341;47.606;7.576;2022-12-11T10:12:56;17.77;;;13.27;;
10586;SDS011;5341;47.606;7.576;2022-12-11T10:15:32;18.88;;;13.23;;
10586;SDS011;5341;47.606;7.576;2022-12-11T10:18:08;17.75;;;12.70;;
10586;SDS011;5341;47.606;7.576;2022-12-11T10:20:40;17.63;;;12.90;;
10586;SDS011;5341;47.606;7.576;2022-12-11T10:23:14;17.05;;;12.00;;
10586;SDS011;5341;47.606;7.576;2022-12-11T10:25:45;17.08;;;12.30;;
10586;SDS011;5341;47.606;7.576;2022-12-11T10:28:18;15.27;;;11.65;;
10586;SDS011;5341;47.606;7.576;2022-12-11T10:30:47;18.40;;;12.73;;
10586;SDS011;5341;47.606;7.576;2022-12-11T10:33:21;16.95;;;12.70;;
10586;SDS011;5341;47.606;7.576;2022-12-11T10:35:53;15.93;;;12.30;;
10586;SDS011;5341;47.606;7.576;2022-12-11T10:38:41;16.13;;;12.45;;
10586;SDS011;5341;47.606;7.576;2022-12-11T10:41:12;15.30;;;11.82;;
10586;SDS011;5341;47.606;7.576;2022-12-11T10:43:44;15.93;;;11.85;;
10586;SDS011;5341;47.606;7.576;2022-12-11T10:46:16;15.65;;;12.57;;
10586;SDS011;5341;47.606;7.576;2022-12-11T10:48:49;18.92;;;13.07;;
10586;SDS011;5341;47.606;7.576;2022-12-11T10:51:32;16.95;;;13.10;;
10586;SDS011;5341;47.606;7.576;2022-12-11T10:54:07;16.35;;;12.52;;
10586;SDS011;5341;47.606;7.576;2022-12-11T10:56:59;16.27;;;12.20;;
10586;SDS011;5341;47.606;7.576;2022-12-11T10:59:32;18.35;;;13.70;;
10586;SDS011;5341;47.606;7.576;2022-12-11T11:02:19;16.60;;;12.10;;
10586;SDS011;5341;47.606;7.576;2022-12-11T11:04:54;17.92;;;12.52;;
10586;SDS011;5341;47.606;7.576;2022-12-11T11:07:29;17.33;;;12.95;;
10586;SDS011;5341;47.606;7.576;2022-12-11T11:10:13;17.52;;;12.65;;
10586;SDS011;5341;47.606;7.576;2022-12-11T11:12:45;16.90;;;12.32;;
10586;SDS011;5341;47.606;7.576;2022-12-11T11:15:27;17.27;;;12.57;;
10586;SDS011;5341;47.606;7.576;2022-12-11T11:17:59;16.35;;;12.05;;
10586;SDS011;5341;47.606;7.576;2022-12-11T11:20:45;17.90;;;13.25;;
10586;SDS011;5341;47.606;7.576;2022-12-11T11:23:14;18.90;;;13.35;;
10586;SDS011;5341;47.606;7.576;2022-12-11T11:25:51;17.33;;;12.68;;
10586;SDS011;5341;47.606;7.576;2022-12-11T11:28:23;15.98;;;12.30;;
10586;SDS011;5341;47.606;7.576;2022-12-11T11:31:00;16.65;;;12.80;;
10586;SDS011;5341;47.606;7.576;2022-12-11T11:33:32;17.85;;;13.80;;
10586;SDS011;5341;47.606;7.576;2022-12-11T11:36:18;16.88;;;13.02;;
10586;SDS011;5341;47.606;7.576;2022-12-11T11:38:48;17.65;;;13.02;;
10586;SDS011;5341;47.606;7.576;2022-12-11T11:41:30;17.23;;;13.10;;
10586;SDS011;5341;47.606;7.576;2022-12-11T11:44:05;18.98;;;13.93;;
10586;SDS011;5341;47.606;7.576;2022-12-11T11:46:36;20.08;;;14.00;;
10586;SDS011;5341;47.606;7.576;2022-12-11T11:49:13;22.77;;;14.57;;
10586;SDS011;5341;47.606;7.576;2022-12-11T11:52:14;19.45;;;13.90;;
10586;SDS011;5341;47.606;7.576;2022-12-11T11:55:19;20.30;;;14.30;;
10586;SDS011;5341;47.606;7.576;2022-12-11T11:58:01;18.88;;;14.45;;
10586;SDS011;5341;47.606;7.576;2022-12-11T12:00:50;20.90;;;14.48;;
10586;SDS011;5341;47.606;7.576;2022-12-11T12:03:42;17.00;;;13.07;;
10586;SDS011;5341;47.606;7.576;2022-12-11T12:06:28;17.45;;;13.98;;
10586;SDS011;5341;47.606;7.576;2022-12-11T12:09:37;20.88;;;14.88;;
10586;SDS011;5341;47.606;7.576;2022-12-11T12:12:13;19.45;;;13.98;;
10586;SDS011;5341;47.606;7.576;2022-12-11T12:14:57;18.27;;;14.18;;
10586;SDS011;5341;47.606;7.576;2022-12-11T12:17:44;18.27;;;14.20;;
10586;SDS011;5341;47.606;7.576;2022-12-11T12:20:47;20.60;;;14.65;;
10586;SDS011;5341;47.606;7.576;2022-12-11T12:23:30;18.27;;;14.52;;
10586;SDS011;5341;47.606;7.576;2022-12-11T12:26:13;18.80;;;13.90;;
10586;SDS011;5341;47.606;7.576;2022-12-11T12:28:50;19.98;;;14.13;;
10586;SDS011;5341;47.606;7.576;2022-12-11T12:31:34;18.80;;;15.20;;
10586;SDS011;5341;47.606;7.576;2022-12-11T12:34:21;19.50;;;15.10;;
10586;SDS011;5341;47.606;7.576;2022-12-11T12:37:01;19.27;;;14.50;;
10586;SDS011;5341;47.606;7.576;2022-12-11T12:39:45;18.70;;;14.27;;
10586;SDS011;5341;47.606;7.576;2022-12-11T12:42:48;18.85;;;14.68;;
10586;SDS011;5341;47.606;7.576;2022-12-11T12:45:25;19.38;;;14.02;;
10586;SDS011;5341;47.606;7.576;2022-12-11T12:47:58;18.52;;;14.30;;
10586;SDS011;5341;47.606;7.576;2022-12-11T12:50:28;19.42;;;15.02;;
10586;SDS011;5341;47.606;7.576;2022-12-11T12:53:09;19.85;;;14.48;;
10586;SDS011;5341;47.606;7.576;2022-12-11T12:55:43;19.08;;;14.73;;
10586;SDS011;5341;47.606;7.576;2022-12-11T12:58:23;19.27;;;14.38;;
10586;SDS011;5341;47.606;7.576;2022-12-11T13:00:54;19.08;;;14.45;;
10586;SDS011;5341;47.606;7.576;2022-12-11T13:03:36;20.02;;;14.18;;
10586;SDS011;5341;47.606;7.576;2022-12-11T13:06:26;17.45;;;13.45;;
10586;SDS011;5341;47.606;7.576;2022-12-11T13:08:56;19.45;;;13.75;;
10586;SDS011;5341;47.606;7.576;2022-12-11T13:11:30;18.60;;;13.98;;
10586;SDS011;5341;47.606;7.576;2022-12-11T13:14:01;17.13;;;13.68;;
10586;SDS011;5341;47.606;7.576;2022-12-11T13:16:35;18.52;;;14.27;;
10586;SDS011;5341;47.606;7.576;2022-12-11T13:19:17;17.13;;;13.27;;
10586;SDS011;5341;47.606;7.576;2022-12-11T13:21:55;16.85;;;12.95;;
10586;SDS011;5341;47.606;7.576;2022-12-11T13:24:24;25.50;;;17.30;;
10586;SDS011;5341;47.606;7.576;2022-12-11T13:26:54;26.98;;;18.48;;
10586;SDS011;5341;47.606;7.576;2022-12-11T13:29:29;27.33;;;17.33;;
10586;SDS011;5341;47.606;7.576;2022-12-11T13:31:59;28.77;;;18.45;;
10586;SDS011;5341;47.606;7.576;2022-12-11T13:34:32;33.30;;;20.88;;
10586;SDS011;5341;47.606;7.576;2022-12-11T13:37:03;32.33;;;21.30;;
10586;SDS011;5341;47.606;7.576;2022-12-11T13:39:52;30.92;;;19.42;;
10586;SDS011;5341;47.606;7.576;2022-12-11T13:42:21;34.22;;;21.92;;
10586;SDS011;5341;47.606;7.576;2022-12-11T13:44:54;27.65;;;19.75;;
10586;SDS011;5341;47.606;7.576;2022-12-11T13:47:22;28.60;;;18.75;;
10586;SDS011;5341;47.606;7.576;2022-12-11T13:49:52;27.33;;;19.05;;
10586;SDS011;5341;47.606;7.576;2022-12-11T13:52:23;30.27;;;20.45;;
10586;SDS011;5341;47.606;7.576;2022-12-11T13:54:53;31.85;;;21.15;;
10586;SDS011;5341;47.606;7.576;2022-12-11T13:57:24;30.73;;;21.25;;
10586;SDS011;5341;47.606;7.576;2022-12-11T13:59:53;32.38;;;22.80;;
10586;SDS011;5341;47.606;7.576;2022-12-11T14:02:23;34.33;;;22.83;;
10586;SDS011;5341;47.606;7.576;2022-12-11T14:05:00;33.40;;;23.05;;
10586;SDS011;5341;47.606;7.576;2022-12-11T14:07:32;33.50;;;23.05;;
10586;SDS011;5341;47.606;7.576;2022-12-11T14:10:04;33.70;;;22.67;;
10586;SDS011;5341;47.606;7.576;2022-12-11T14:12:35;32.10;;;22.90;;
10586;SDS011;5341;47.606;7.576;2022-12-11T14:15:04;29.45;;;20.65;;
10586;SDS011;5341;47.606;7.576;2022-12-11T14:17:32;26.65;;;19.30;;
10586;SDS011;5341;47.606;7.576;2022-12-11T14:20:03;26.17;;;20.15;;
10586;SDS011;5341;47.606;7.576;2022-12-11T14:22:33;25.13;;;18.55;;
10586;SDS011;5341;47.606;7.576;2022-12-11T14:25:01;23.40;;;17.75;;
10586;SDS011;5341;47.606;7.576;2022-12-11T14:27:46;22.40;;;16.90;;
10586;SDS011;5341;47.606;7.576;2022-12-11T14:30:19;22.73;;;16.63;;
10586;SDS011;5341;47.606;7.576;2022-12-11T14:32:48;20.92;;;16.42;;
10586;SDS011;5341;47.606;7.576;2022-12-11T14:35:22;21.77;;;16.35;;
10586;SDS011;5341;47.606;7.576;2022-12-11T14:37:52;21.10;;;14.93;;
10586;SDS011;5341;47.606;7.576;2022-12-11T14:40:21;21.00;;;15.40;;
10586;SDS011;5341;47.606;7.576;2022-12-11T14:42:54;21.38;;;15.55;;
10586;SDS011;5341;47.606;7.576;2022-12-11T14:45:27;20.33;;;15.43;;
10586;SDS011;5341;47.606;7.576;2022-12-11T14:47:59;20.83;;;15.27;;
10586;SDS011;5341;47.606;7.576;2022-12-11T14:50:36;21.02;;;16.17;;
10586;SDS011;5341;47.606;7.576;2022-12-11T14:53:09;21.08;;;15.52;;
10586;SDS011;5341;47.606;7.576;2022-12-11T14:55:41;21.23;;;15.63;;
10586;SDS011;5341;47.606;7.576;2022-12-11T14:58:13;21.45;;;16.25;;
10586;SDS011;5341;47.606;7.576;2022-12-11T15:00:43;19.05;;;14.88;;
10586;SDS011;5341;47.606;7.576;2022-12-11T15:03:23;19.13;;;15.00;;
10586;SDS011;5341;47.606;7.576;2022-12-11T15:05:58;20.50;;;15.20;;
10586;SDS011;5341;47.606;7.576;2022-12-11T15:08:27;17.95;;;14.65;;
10586;SDS011;5341;47.606;7.576;2022-12-11T15:11:01;18.38;;;14.52;;
10586;SDS011;5341;47.606;7.576;2022-12-11T15:13:32;20.05;;;15.02;;
10586;SDS011;5341;47.606;7.576;2022-12-11T15:16:02;17.92;;;13.90;;
10586;SDS011;5341;47.606;7.576;2022-12-11T15:18:33;17.30;;;14.02;;
10586;SDS011;5341;47.606;7.576;2022-12-11T15:21:05;18.77;;;15.00;;
10586;SDS011;5341;47.606;7.576;2022-12-11T15:23:37;19.92;;;15.25;;